KELK/ELK METAR and TAF weather

Enter ICAO airport designator
Station Type Date Time Source
KELK METAR 2020/09/25 20:15 UTC NOAA

KELK 252015Z AUTO 19012G20KT 10SM CLR 32/14 A2987 RMK AO2 T03240142


Station Type Date Time Source
KELK Decoded METAR 2020/09/25 20:15 UTC NOAA

Station name not available
Sep 25, 2020 - 04:15 PM EDT / 2020.09.25 2015 UTC
Wind: from the S (190 degrees) at 14 MPH (12 KT) gusting to 23 MPH (20 KT):0
Visibility: 10 mile(s):0
Sky conditions: clear
Temperature: 90.3 F (32.4 C)
Dew Point: 57.6 F (14.2 C)
Relative Humidity: 33%
Pressure (altimeter): 29.87 in. Hg (1011 hPa)
ob: KELK 252015Z AUTO 19012G20KT 10SM CLR 32/14 A2987 RMK AO2 T03240142
cycle: 20

Station Type Date Time Source
KELK TAF UTC NOAA

Error!

Example: see airport list